Time;durP1;ratioP1;P1;durP2;ratioP2;P2;SDS_P1;SDS_P2;PMS_P1;PMS_P2;Temp;Humidity;BMP_temperature;BMP_pressure;BME280_temperature;BME280_humidity;BME280_pressure;Samples;Min_cycle;Max_cycle;Signal;HPM_P1;HPM_P2
2023/03/16 00:01:59;;;;;;;10.23;8.77;;;;;;;;;;6354320;22;20422;-80
2023/03/16 00:04:25;;;;;;;9.50;8.63;;;;;;;;;;6301075;22;20011;-81
2023/03/16 00:06:51;;;;;;;13.77;11.07;;;;;;;;;;6356804;22;20070;-81
2023/03/16 00:09:17;;;;;;;8.35;7.65;;;;;;;;;;6357880;22;20017;-83
2023/03/16 00:11:43;;;;;;;8.77;7.90;;;;;;;;;;6358068;22;20505;-83
2023/03/16 00:14:09;;;;;;;11.13;10.13;;;;;;;;;;6331561;22;20046;-84
2023/03/16 00:16:35;;;;;;;8.55;7.72;;;;;;;;;;6356319;22;20002;-84
2023/03/16 00:19:02;;;;;;;5.85;5.45;;;;;;;;;;6328799;22;20025;-84
2023/03/16 00:21:30;;;;;;;9.70;8.57;;;;;;;;;;6329150;22;20019;-84
2023/03/16 00:23:59;;;;;;;7.38;6.70;;;;;;;;;;6357916;22;20017;-82
2023/03/16 00:26:25;;;;;;;11.18;10.07;;;;;;;;;;6360358;22;20015;-85
2023/03/16 00:28:53;;;;;;;4.80;4.47;;;;;;;;;;6361249;22;20064;-84
2023/03/16 00:31:19;;;;;;;12.15;10.85;;;;;;;;;;6357278;22;20485;-83
2023/03/16 00:33:45;;;;;;;6.28;5.70;;;;;;;;;;6329630;22;20006;-83
2023/03/16 00:36:11;;;;;;;12.60;10.77;;;;;;;;;;6360160;22;19999;-82
2023/03/16 00:38:38;;;;;;;11.73;8.90;;;;;;;;;;6329127;22;20019;-82
2023/03/16 00:41:05;;;;;;;8.50;7.65;;;;;;;;;;6352295;22;20023;-82
2023/03/16 00:43:39;;;;;;;11.15;9.75;;;;;;;;;;6352218;22;20304;-82
2023/03/16 00:46:08;;;;;;;10.50;9.52;;;;;;;;;;6356283;22;20006;-82
2023/03/16 00:48:35;;;;;;;7.80;7.15;;;;;;;;;;6325408;22;20056;-80
2023/03/16 00:51:03;;;;;;;9.20;8.35;;;;;;;;;;6322629;22;20022;-80
2023/03/16 00:53:30;;;;;;;10.05;9.07;;;;;;;;;;6350473;22;20014;-80
2023/03/16 00:55:57;;;;;;;10.15;9.13;;;;;;;;;;6323953;22;20017;-83
2023/03/16 00:58:23;;;;;;;8.90;8.00;;;;;;;;;;6321950;22;20011;-81
2023/03/16 01:00:53;;;;;;;10.75;9.65;;;;;;;;;;6348284;22;20023;-83
2023/03/16 01:03:19;;;;;;;9.07;8.27;;;;;;;;;;6295079;22;20010;-80
2023/03/16 01:05:45;;;;;;;12.40;8.23;;;;;;;;;;6320966;22;20011;-81
2023/03/16 01:08:11;;;;;;;9.55;8.63;;;;;;;;;;6297011;22;20006;-82
2023/03/16 01:10:39;;;;;;;9.70;7.57;;;;;;;;;;6328091;22;20450;-82
2023/03/16 01:13:06;;;;;;;8.10;7.35;;;;;;;;;;6354349;22;20446;-81
2023/03/16 01:15:33;;;;;;;8.23;5.85;;;;;;;;;;6323621;22;20010;-80
2023/03/16 01:18:00;;;;;;;7.05;6.35;;;;;;;;;;6348335;22;20367;-81
2023/03/16 01:20:26;;;;;;;8.73;7.95;;;;;;;;;;6320908;22;20021;-79
2023/03/16 01:22:52;;;;;;;6.50;5.90;;;;;;;;;;6345703;22;20068;-80
2023/03/16 01:25:20;;;;;;;8.85;7.45;;;;;;;;;;6287532;22;20030;-73
2023/03/16 01:27:46;;;;;;;8.02;7.32;;;;;;;;;;6335455;22;20006;-72
2023/03/16 01:30:12;;;;;;;9.35;8.20;;;;;;;;;;6307868;22;20060;-73
2023/03/16 01:32:39;;;;;;;5.88;5.40;;;;;;;;;;6307846;22;20101;-73
2023/03/16 01:35:06;;;;;;;6.28;4.95;;;;;;;;;;6307889;22;20007;-73
2023/03/16 01:37:32;;;;;;;7.63;6.85;;;;;;;;;;6307196;22;20426;-73
2023/03/16 01:40:07;;;;;;;5.80;5.30;;;;;;;;;;6335375;22;20458;-73
2023/03/16 01:42:43;;;;;;;7.72;7.00;;;;;;;;;;6334870;22;20083;-73
2023/03/16 01:45:28;;;;;;;10.82;8.90;;;;;;;;;;6308203;22;20014;-73
2023/03/16 01:47:57;;;;;;;8.10;7.03;;;;;;;;;;6308070;22;20032;-73
2023/03/16 01:50:24;;;;;;;9.63;7.20;;;;;;;;;;6336051;22;20462;-73
2023/03/16 01:52:51;;;;;;;10.10;8.07;;;;;;;;;;6308289;22;20018;-74
2023/03/16 01:55:17;;;;;;;6.18;5.57;;;;;;;;;;6335536;22;20006;-73
2023/03/16 01:57:44;;;;;;;5.75;5.25;;;;;;;;;;6335000;22;20100;-73
2023/03/16 02:00:18;;;;;;;7.18;6.47;;;;;;;;;;6335036;22;20033;-74
2023/03/16 02:03:13;;;;;;;5.05;4.70;;;;;;;;;;6305291;22;20045;-73
2023/03/16 02:05:58;;;;;;;5.07;4.70;;;;;;;;;;6307892;22;20059;-73
2023/03/16 02:08:24;;;;;;;10.13;9.05;;;;;;;;;;6281693;22;20101;-73
2023/03/16 02:10:53;;;;;;;11.50;8.90;;;;;;;;;;6280595;22;20017;-73
2023/03/16 02:13:23;;;;;;;8.38;7.68;;;;;;;;;;6280062;22;20034;-73
2023/03/16 02:15:50;;;;;;;10.85;6.55;;;;;;;;;;6230282;22;20704;-73
2023/03/16 02:18:21;;;;;;;3.85;3.55;;;;;;;;;;6306763;22;20551;-73
2023/03/16 02:21:04;;;;;;;9.25;7.68;;;;;;;;;;6306298;22;20030;-73
2023/03/16 02:23:31;;;;;;;7.30;6.70;;;;;;;;;;6280965;22;20007;-74
2023/03/16 02:26:09;;;;;;;8.02;6.38;;;;;;;;;;6307349;22;20017;-74
2023/03/16 02:28:36;;;;;;;6.45;5.03;;;;;;;;;;6282224;22;20085;-74
2023/03/16 02:31:02;;;;;;;7.93;6.88;;;;;;;;;;6307492;22;20049;-74
2023/03/16 02:33:29;;;;;;;7.47;6.43;;;;;;;;;;6306445;22;20002;-73
2023/03/16 02:35:55;;;;;;;7.50;6.78;;;;;;;;;;6281879;22;20006;-73
2023/03/16 02:38:21;;;;;;;8.13;7.38;;;;;;;;;;6334424;22;20472;-73
2023/03/16 02:40:58;;;;;;;8.32;6.88;;;;;;;;;;6307441;22;20072;-73
2023/03/16 02:43:25;;;;;;;4.40;4.05;;;;;;;;;;6281359;22;20011;-72
2023/03/16 02:46:05;;;;;;;4.78;4.38;;;;;;;;;;6283642;22;20011;-73
2023/03/16 02:48:36;;;;;;;5.35;4.97;;;;;;;;;;6306590;22;20094;-73
2023/03/16 02:51:04;;;;;;;7.53;6.82;;;;;;;;;;6281441;22;20527;-73
2023/03/16 02:53:30;;;;;;;6.05;5.55;;;;;;;;;;6333898;22;20007;-72
2023/03/16 02:55:58;;;;;;;8.50;6.10;;;;;;;;;;6305402;22;20014;-72
2023/03/16 02:58:24;;;;;;;8.75;7.88;;;;;;;;;;6306923;22;20011;-73
2023/03/16 03:00:50;;;;;;;8.45;7.65;;;;;;;;;;6306583;22;20023;-73
2023/03/16 03:03:17;;;;;;;7.03;6.45;;;;;;;;;;6335715;22;20010;-73
2023/03/16 03:05:43;;;;;;;8.80;6.18;;;;;;;;;;6307431;22;20021;-73
2023/03/16 03:08:09;;;;;;;8.90;7.43;;;;;;;;;;6283059;22;20086;-73
2023/03/16 03:10:36;;;;;;;6.85;4.90;;;;;;;;;;6307831;22;20011;-74
2023/03/16 03:13:02;;;;;;;7.35;6.32;;;;;;;;;;6310547;22;20681;-74
2023/03/16 03:15:28;;;;;;;7.40;6.63;;;;;;;;;;6311060;22;20032;-74
2023/03/16 03:18:06;;;;;;;5.35;4.90;;;;;;;;;;6310317;22;20033;-73
2023/03/16 03:20:32;;;;;;;9.90;6.55;;;;;;;;;;6306117;22;20025;-73
2023/03/16 03:22:58;;;;;;;10.18;7.10;;;;;;;;;;6333226;22;20443;-73
2023/03/16 03:25:24;;;;;;;5.47;5.05;;;;;;;;;;6306036;22;20015;-75
2023/03/16 03:27:55;;;;;;;6.10;5.60;;;;;;;;;;6280560;22;20060;-72
2023/03/16 03:30:23;;;;;;;8.63;5.35;;;;;;;;;;6305475;22;20015;-73
2023/03/16 03:32:51;;;;;;;7.47;6.88;;;;;;;;;;6332866;22;20018;-74
2023/03/16 03:35:18;;;;;;;7.30;6.70;;;;;;;;;;6280431;22;20017;-74
2023/03/16 03:37:45;;;;;;;7.78;7.18;;;;;;;;;;6278955;22;20023;-73
2023/03/16 03:40:13;;;;;;;6.90;6.20;;;;;;;;;;6304990;22;20022;-74
2023/03/16 03:42:42;;;;;;;6.18;5.57;;;;;;;;;;6303929;22;20025;-73
2023/03/16 03:45:11;;;;;;;6.70;6.15;;;;;;;;;;6306247;22;20091;-74
2023/03/16 03:47:38;;;;;;;8.43;7.70;;;;;;;;;;6306009;22;20102;-73
2023/03/16 03:50:05;;;;;;;7.65;6.97;;;;;;;;;;6305295;22;20015;-73
2023/03/16 03:52:38;;;;;;;6.68;6.07;;;;;;;;;;6305970;22;20090;-73
2023/03/16 03:55:05;;;;;;;6.68;6.10;;;;;;;;;;6333181;22;20014;-73
2023/03/16 03:57:31;;;;;;;3.85;3.55;;;;;;;;;;6332432;22;20530;-74
2023/03/16 03:59:57;;;;;;;6.63;6.03;;;;;;;;;;6304288;22;20042;-72
2023/03/16 04:02:52;;;;;;;6.43;5.82;;;;;;;;;;6333106;22;20049;-73
2023/03/16 04:05:26;;;;;;;12.32;6.95;;;;;;;;;;6305014;22;20347;-72
2023/03/16 04:07:56;;;;;;;17.83;6.95;;;;;;;;;;6306372;22;20014;-73
2023/03/16 04:10:23;;;;;;;6.10;5.45;;;;;;;;;;6306997;22;20424;-73
2023/03/16 04:12:50;;;;;;;6.82;6.22;;;;;;;;;;6308635;22;20812;-72
2023/03/16 04:15:17;;;;;;;7.30;6.65;;;;;;;;;;6310447;22;20014;-72
2023/03/16 04:17:52;;;;;;;5.55;5.13;;;;;;;;;;6286635;22;20011;-72
2023/03/16 04:20:19;;;;;;;4.25;3.92;;;;;;;;;;6309855;22;20549;-73
2023/03/16 04:22:46;;;;;;;6.30;5.80;;;;;;;;;;6309175;22;20079;-72
2023/03/16 04:25:14;;;;;;;4.05;3.75;;;;;;;;;;6307568;22;20017;-72
2023/03/16 04:27:41;;;;;;;5.68;5.22;;;;;;;;;;6303820;22;20011;-73
2023/03/16 04:30:10;;;;;;;7.97;7.28;;;;;;;;;;6304117;22;20113;-73
2023/03/16 04:32:38;;;;;;;4.20;3.90;;;;;;;;;;6276368;22;20447;-72
2023/03/16 04:35:05;;;;;;;4.38;4.18;;;;;;;;;;6304010;22;20014;-73
2023/03/16 04:37:57;;;;;;;6.45;5.85;;;;;;;;;;6324700;22;20527;-73
2023/03/16 04:40:31;;;;;;;7.10;6.50;;;;;;;;;;6303738;22;20022;-73
2023/03/16 04:43:06;;;;;;;7.32;5.80;;;;;;;;;;6305049;22;20029;-73
2023/03/16 04:45:33;;;;;;;6.72;6.15;;;;;;;;;;6305553;22;20006;-72
2023/03/16 04:47:59;;;;;;;6.70;5.28;;;;;;;;;;6306054;22;20018;-72
2023/03/16 04:50:26;;;;;;;7.60;6.72;;;;;;;;;;6279336;22;20011;-71
2023/03/16 04:52:54;;;;;;;6.95;6.25;;;;;;;;;;6277922;22;20042;-73
2023/03/16 04:55:21;;;;;;;8.73;6.45;;;;;;;;;;6302832;22;20025;-71
2023/03/16 04:57:48;;;;;;;7.97;7.07;;;;;;;;;;6277975;22;20025;-71
2023/03/16 05:00:18;;;;;;;5.80;5.20;;;;;;;;;;6277570;22;20026;-71
2023/03/16 05:02:52;;;;;;;7.60;5.90;;;;;;;;;;6303325;22;20546;-71
2023/03/16 05:05:18;;;;;;;7.90;7.18;;;;;;;;;;6303160;22;20026;-72
2023/03/16 05:07:44;;;;;;;6.00;5.50;;;;;;;;;;6305632;22;20017;-72
2023/03/16 05:10:12;;;;;;;5.70;5.30;;;;;;;;;;6306030;22;20018;-70
2023/03/16 05:12:39;;;;;;;6.03;5.43;;;;;;;;;;6305454;22;20017;-72
2023/03/16 05:15:07;;;;;;;7.80;7.07;;;;;;;;;;6306104;22;20010;-71
2023/03/16 05:17:41;;;;;;;7.53;6.82;;;;;;;;;;6305740;22;20007;-72
2023/03/16 05:20:11;;;;;;;8.05;7.18;;;;;;;;;;6280857;22;20018;-72
2023/03/16 05:22:40;;;;;;;9.25;7.47;;;;;;;;;;6305496;22;20021;-71
2023/03/16 05:25:16;;;;;;;5.57;5.10;;;;;;;;;;6306006;22;20014;-70
2023/03/16 05:27:47;;;;;;;9.30;8.40;;;;;;;;;;6281184;22;20608;-71
2023/03/16 05:30:19;;;;;;;7.93;7.18;;;;;;;;;;6307940;22;20015;-70
2023/03/16 05:32:45;;;;;;;8.13;7.28;;;;;;;;;;6307312;22;20011;-71
2023/03/16 05:35:12;;;;;;;8.82;7.88;;;;;;;;;;6281787;22;20082;-71
2023/03/16 05:37:39;;;;;;;9.80;8.35;;;;;;;;;;6334438;22;20018;-70
2023/03/16 05:40:21;;;;;;;7.07;5.78;;;;;;;;;;6256965;22;20775;-71
2023/03/16 05:42:59;;;;;;;;;;;;;;;;;;6308287;22;20412;-70
2023/03/16 05:45:26;;;;;;;5.35;4.85;;;;;;;;;;6307520;22;19906;-70
2023/03/16 05:48:04;;;;;;;6.47;5.88;;;;;;;;;;6307790;22;20025;-78
2023/03/16 05:50:34;;;;;;;8.40;7.60;;;;;;;;;;6308061;22;20017;-77
2023/03/16 05:53:00;;;;;;;5.57;5.03;;;;;;;;;;6308947;22;20685;-76
2023/03/16 05:55:27;;;;;;;6.07;5.50;;;;;;;;;;6307491;22;20021;-78
2023/03/16 05:57:57;;;;;;;5.30;4.80;;;;;;;;;;6308143;22;20007;-78
2023/03/16 06:00:24;;;;;;;5.18;4.68;;;;;;;;;;6307998;22;20022;-78
2023/03/16 06:03:01;;;;;;;7.70;6.80;;;;;;;;;;6308087;22;20063;-78
2023/03/16 06:05:32;;;;;;;7.63;6.93;;;;;;;;;;6308670;22;20011;-79
2023/03/16 06:08:01;;;;;;;7.60;5.65;;;;;;;;;;6300895;22;20335;-78
2023/03/16 06:10:28;;;;;;;9.27;8.48;;;;;;;;;;6305747;22;20015;-78
2023/03/16 06:12:54;;;;;;;10.20;9.20;;;;;;;;;;6280747;22;20484;-78
2023/03/16 06:15:23;;;;;;;8.77;7.32;;;;;;;;;;6335337;22;20047;-78
2023/03/16 06:17:51;;;;;;;8.15;7.20;;;;;;;;;;6283192;22;20007;-79
2023/03/16 06:20:17;;;;;;;8.55;7.25;;;;;;;;;;6307302;22;20074;-79
2023/03/16 06:22:44;;;;;;;11.60;8.65;;;;;;;;;;6306665;22;20461;-78
2023/03/16 06:25:11;;;;;;;8.95;7.63;;;;;;;;;;6281838;22;20011;-78
2023/03/16 06:27:38;;;;;;;9.70;7.45;;;;;;;;;;6305569;22;20015;-79
2023/03/16 06:30:15;;;;;;;11.35;8.63;;;;;;;;;;6333844;22;20014;-79
2023/03/16 06:32:44;;;;;;;13.25;9.23;;;;;;;;;;6280914;22;20493;-77
2023/03/16 06:35:10;;;;;;;8.70;7.82;;;;;;;;;;6282081;22;20553;-78
2023/03/16 06:37:40;;;;;;;14.80;10.38;;;;;;;;;;6280042;22;20023;-78
2023/03/16 06:40:21;;;;;;;11.02;9.90;;;;;;;;;;6281636;22;20018;-77
2023/03/16 06:42:47;;;;;;;9.88;8.98;;;;;;;;;;6306475;22;20010;-78
2023/03/16 06:45:16;;;;;;;11.18;10.13;;;;;;;;;;6282234;22;20003;-78
2023/03/16 06:47:45;;;;;;;11.55;9.93;;;;;;;;;;6280655;22;20657;-80
2023/03/16 06:50:11;;;;;;;12.32;10.98;;;;;;;;;;6305959;22;20105;-78
2023/03/16 06:52:39;;;;;;;12.00;10.85;;;;;;;;;;6306517;22;20026;-77
2023/03/16 06:55:05;;;;;;;12.23;10.95;;;;;;;;;;6306871;22;20097;-75
2023/03/16 06:57:34;;;;;;;9.98;8.95;;;;;;;;;;6303086;22;20014;-75
2023/03/16 07:00:02;;;;;;;13.02;11.50;;;;;;;;;;6333084;22;20019;-75
2023/03/16 07:02:31;;;;;;;15.23;11.05;;;;;;;;;;6333083;22;20014;-75
2023/03/16 07:04:57;;;;;;;12.18;10.52;;;;;;;;;;6254704;22;20010;-75
2023/03/16 07:07:23;;;;;;;13.55;10.60;;;;;;;;;;6332525;22;20119;-75
2023/03/16 07:09:50;;;;;;;10.85;9.73;;;;;;;;;;6279461;22;20015;-74
2023/03/16 07:12:16;;;;;;;11.13;9.93;;;;;;;;;;6305036;22;20109;-74
2023/03/16 07:14:42;;;;;;;15.10;11.15;;;;;;;;;;6305442;22;20094;-75
2023/03/16 07:17:11;;;;;;;9.75;8.85;;;;;;;;;;6305765;22;20017;-76
2023/03/16 07:19:37;;;;;;;16.48;13.45;;;;;;;;;;6305034;22;20006;-76
2023/03/16 07:22:03;;;;;;;13.75;11.98;;;;;;;;;;6332412;22;20050;-75
2023/03/16 07:24:33;;;;;;;16.27;13.95;;;;;;;;;;6304622;22;20097;-75
2023/03/16 07:27:00;;;;;;;13.35;12.05;;;;;;;;;;6304359;22;20458;-75
2023/03/16 07:29:30;;;;;;;16.52;14.75;;;;;;;;;;6279396;22;20044;-74
2023/03/16 07:31:56;;;;;;;22.20;16.80;;;;;;;;;;6305012;22;20010;-74
2023/03/16 07:34:29;;;;;;;20.05;16.17;;;;;;;;;;6332620;22;20011;-75
2023/03/16 07:36:58;;;;;;;19.77;14.88;;;;;;;;;;6299463;22;20458;-75
2023/03/16 07:39:27;;;;;;;19.67;16.02;;;;;;;;;;6273702;22;20011;-75
2023/03/16 07:42:00;;;;;;;16.05;12.13;;;;;;;;;;6273451;22;20460;-75
2023/03/16 07:44:38;;;;;;;16.63;14.38;;;;;;;;;;6299409;22;20013;-75
2023/03/16 07:47:04;;;;;;;15.80;12.68;;;;;;;;;;6299959;22;20038;-75
2023/03/16 07:49:30;;;;;;;8.20;7.45;;;;;;;;;;6299313;22;20019;-75
2023/03/16 07:51:58;;;;;;;14.25;11.15;;;;;;;;;;6299867;22;20014;-75
2023/03/16 07:54:33;;;;;;;12.52;11.23;;;;;;;;;;6249573;22;20011;-76
2023/03/16 07:57:00;;;;;;;12.23;10.88;;;;;;;;;;6274186;22;20374;-75
2023/03/16 07:59:37;;;;;;;13.07;11.77;;;;;;;;;;6265657;22;20018;-76
2023/03/16 08:02:03;;;;;;;11.00;9.95;;;;;;;;;;6273532;22;20027;-75
2023/03/16 08:04:30;;;;;;;10.07;9.05;;;;;;;;;;6273989;22;20007;-76
2023/03/16 08:06:59;;;;;;;13.23;11.93;;;;;;;;;;6273856;22;20022;-77
2023/03/16 08:09:34;;;;;;;13.70;12.30;;;;;;;;;;6273114;22;20014;-74
2023/03/16 08:12:06;;;;;;;14.55;12.35;;;;;;;;;;6273428;22;20015;-75
2023/03/16 08:14:34;;;;;;;13.25;11.88;;;;;;;;;;6247628;22;20011;-76
2023/03/16 08:17:14;;;;;;;12.65;11.35;;;;;;;;;;6273921;22;20045;-76
2023/03/16 08:19:42;;;;;;;17.77;12.02;;;;;;;;;;6273424;22;20014;-76
2023/03/16 08:22:09;;;;;;;16.27;13.05;;;;;;;;;;6248643;22;20023;-76
2023/03/16 08:24:41;;;;;;;14.25;12.82;;;;;;;;;;6272963;22;20646;-78
2023/03/16 08:27:09;;;;;;;13.25;11.90;;;;;;;;;;6273826;22;20007;-77
2023/03/16 08:29:39;;;;;;;14.80;11.63;;;;;;;;;;6247974;22;20522;-76
2023/03/16 08:32:08;;;;;;;15.77;12.35;;;;;;;;;;6274339;22;20011;-78
2023/03/16 08:34:40;;;;;;;12.43;10.90;;;;;;;;;;6301076;22;20066;-78
2023/03/16 08:37:08;;;;;;;14.65;12.30;;;;;;;;;;6274328;22;20023;-78
2023/03/16 08:39:35;;;;;;;13.52;12.10;;;;;;;;;;6267473;22;20011;-78
2023/03/16 08:42:07;;;;;;;13.27;11.98;;;;;;;;;;6299754;22;20025;-78
2023/03/16 08:44:43;;;;;;;13.75;12.35;;;;;;;;;;6273476;22;20018;-77
2023/03/16 08:47:10;;;;;;;14.88;13.32;;;;;;;;;;6274100;22;20462;-78
2023/03/16 08:49:37;;;;;;;16.67;13.40;;;;;;;;;;6278352;22;20007;-77
2023/03/16 08:52:11;;;;;;;13.77;12.38;;;;;;;;;;6274639;22;20015;-78
2023/03/16 08:54:38;;;;;;;13.43;12.07;;;;;;;;;;6301452;22;20102;-77
2023/03/16 08:57:04;;;;;;;14.43;12.93;;;;;;;;;;6301191;22;20046;-78
2023/03/16 08:59:30;;;;;;;15.55;13.82;;;;;;;;;;6302808;22;20011;-77
2023/03/16 09:01:56;;;;;;;14.82;13.32;;;;;;;;;;6278921;22;20023;-76
2023/03/16 09:04:22;;;;;;;17.90;13.80;;;;;;;;;;6306224;22;20052;-76
2023/03/16 09:06:50;;;;;;;14.88;13.43;;;;;;;;;;6304919;22;20015;-76
2023/03/16 09:09:16;;;;;;;14.63;13.13;;;;;;;;;;6261071;22;20380;-77
2023/03/16 09:11:43;;;;;;;16.67;14.38;;;;;;;;;;6296272;22;20370;-75
2023/03/16 09:14:10;;;;;;;17.65;14.90;;;;;;;;;;6322330;22;20058;-77
2023/03/16 09:16:37;;;;;;;14.40;12.90;;;;;;;;;;6288579;22;20015;-76
2023/03/16 09:19:04;;;;;;;13.88;12.05;;;;;;;;;;6302885;22;20011;-76
2023/03/16 09:21:30;;;;;;;21.27;15.00;;;;;;;;;;6302968;22;20447;-76
2023/03/16 09:23:56;;;;;;;16.30;13.38;;;;;;;;;;6302263;22;20447;-74
2023/03/16 09:26:22;;;;;;;15.13;12.35;;;;;;;;;;6283279;22;20015;-75
2023/03/16 09:28:48;;;;;;;16.45;14.20;;;;;;;;;;6302226;22;20018;-75
2023/03/16 09:31:15;;;;;;;17.67;13.30;;;;;;;;;;6302805;22;20030;-77
2023/03/16 09:33:41;;;;;;;10.35;9.30;;;;;;;;;;6302037;22;20011;-76
2023/03/16 09:36:10;;;;;;;15.23;13.60;;;;;;;;;;6275391;22;20011;-77
2023/03/16 09:38:37;;;;;;;22.15;15.18;;;;;;;;;;6301681;22;20018;-76
2023/03/16 09:41:06;;;;;;;17.90;14.80;;;;;;;;;;6288900;22;20105;-76
2023/03/16 09:43:37;;;;;;;14.70;13.00;;;;;;;;;;6301726;22;20007;-78
2023/03/16 09:46:19;;;;;;;12.80;11.55;;;;;;;;;;6276010;22;20379;-78
2023/03/16 09:48:45;;;;;;;21.05;16.42;;;;;;;;;;6275113;22;20352;-75
2023/03/16 09:51:30;;;;;;;20.42;15.95;;;;;;;;;;6302570;22;20501;-78
2023/03/16 09:53:57;;;;;;;18.60;15.57;;;;;;;;;;6302015;22;20021;-76
2023/03/16 09:56:29;;;;;;;17.42;14.48;;;;;;;;;;6276241;22;20394;-78
2023/03/16 09:58:55;;;;;;;23.55;13.80;;;;;;;;;;6275047;22;20018;-77
2023/03/16 10:01:21;;;;;;;18.23;14.18;;;;;;;;;;6275513;22;20109;-78
2023/03/16 10:04:00;;;;;;;13.63;12.07;;;;;;;;;;6296106;22;20355;-80
2023/03/16 10:06:26;;;;;;;15.90;14.20;;;;;;;;;;6296358;22;20053;-79
2023/03/16 10:09:02;;;;;;;16.23;13.25;;;;;;;;;;6284189;22;20059;-84
2023/03/16 10:11:38;;;;;;;18.08;13.93;;;;;;;;;;6295140;22;20147;-84
2023/03/16 10:14:24;;;;;;;14.48;13.05;;;;;;;;;;6318333;22;20035;-82
2023/03/16 10:16:51;;;;;;;16.15;14.52;;;;;;;;;;6313512;22;20022;-83
2023/03/16 10:19:19;;;;;;;15.15;13.55;;;;;;;;;;6266811;22;20011;-83
2023/03/16 10:21:45;;;;;;;15.00;13.50;;;;;;;;;;6319249;22;20340;-83
2023/03/16 10:24:33;;;;;;;16.08;13.40;;;;;;;;;;6285228;22;20065;-82
2023/03/16 10:26:59;;;;;;;13.57;12.18;;;;;;;;;;6320478;22;20183;-82
2023/03/16 10:29:26;;;;;;;13.98;12.68;;;;;;;;;;6290192;22;20003;-82
2023/03/16 10:31:54;;;;;;;15.20;13.18;;;;;;;;;;6313762;22;20459;-83
2023/03/16 10:34:22;;;;;;;15.57;13.85;;;;;;;;;;6305769;22;20015;-79
2023/03/16 10:36:48;;;;;;;14.25;12.95;;;;;;;;;;6307011;22;20022;-82
2023/03/16 10:39:18;;;;;;;13.60;12.25;;;;;;;;;;6315094;22;20007;-84
2023/03/16 10:41:45;;;;;;;15.57;13.90;;;;;;;;;;6311631;22;20189;-81
2023/03/16 10:44:15;;;;;;;14.40;13.00;;;;;;;;;;6278922;22;20007;-78
2023/03/16 10:46:47;;;;;;;16.48;14.80;;;;;;;;;;6303190;22;20018;-78
2023/03/16 10:49:19;;;;;;;17.00;13.55;;;;;;;;;;6276790;22;20011;-79
2023/03/16 10:51:45;;;;;;;21.15;15.52;;;;;;;;;;6300437;22;20011;-77
2023/03/16 10:54:14;;;;;;;20.73;15.98;;;;;;;;;;6301498;22;20451;-78
2023/03/16 10:56:40;;;;;;;20.20;16.15;;;;;;;;;;6302268;22;20007;-77
2023/03/16 10:59:37;;;;;;;17.52;15.00;;;;;;;;;;6305699;22;20040;-77
2023/03/16 11:02:13;;;;;;;16.38;14.73;;;;;;;;;;6274256;22;20077;-78
2023/03/16 11:04:39;;;;;;;19.77;14.52;;;;;;;;;;6274987;22;20011;-78
2023/03/16 11:07:08;;;;;;;22.50;17.23;;;;;;;;;;6302980;22;20011;-79
2023/03/16 11:09:34;;;;;;;21.00;17.73;;;;;;;;;;6301449;22;20015;-80
2023/03/16 11:12:11;;;;;;;20.33;16.13;;;;;;;;;;6249778;22;20015;-78
2023/03/16 11:14:37;;;;;;;23.52;18.40;;;;;;;;;;6303073;22;20095;-83
2023/03/16 11:17:17;;;;;;;18.65;16.48;;;;;;;;;;6275212;22;20495;-79
2023/03/16 11:19:46;;;;;;;19.67;17.23;;;;;;;;;;6248680;22;20043;-78
2023/03/16 11:22:22;;;;;;;26.92;20.10;;;;;;;;;;6302293;22;20387;-79
2023/03/16 11:25:08;;;;;;;25.38;18.60;;;;;;;;;;6301072;22;20082;-78
2023/03/16 11:27:53;;;;;;;27.08;19.27;;;;;;;;;;6303070;22;20015;-79
2023/03/16 11:30:48;;;;;;;25.20;18.63;;;;;;;;;;6274079;22;20061;-79
2023/03/16 11:33:14;;;;;;;29.05;20.92;;;;;;;;;;6249035;22;20019;-80
2023/03/16 11:35:44;;;;;;;32.30;20.85;;;;;;;;;;6274811;22;20073;-79
2023/03/16 11:38:28;;;;;;;24.60;17.27;;;;;;;;;;6302154;22;20050;-78
2023/03/16 11:41:16;;;;;;;24.20;16.73;;;;;;;;;;6275016;22;20043;-79
2023/03/16 11:43:42;;;;;;;23.45;16.23;;;;;;;;;;6249531;22;20259;-78
2023/03/16 11:46:17;;;;;;;19.40;16.55;;;;;;;;;;6290268;22;20007;-77
2023/03/16 11:48:49;;;;;;;21.15;17.02;;;;;;;;;;6275482;22;20015;-78
2023/03/16 11:51:23;;;;;;;23.38;17.98;;;;;;;;;;6301777;22;20053;-77
2023/03/16 11:54:01;;;;;;;23.52;18.15;;;;;;;;;;6302572;22;20107;-80
2023/03/16 11:56:34;;;;;;;24.27;17.88;;;;;;;;;;6300447;22;20015;-81
2023/03/16 11:59:18;;;;;;;23.23;18.60;;;;;;;;;;6301101;22;20011;-79
2023/03/16 12:01:55;;;;;;;23.33;17.40;;;;;;;;;;6302972;22;20023;-79
2023/03/16 12:04:21;;;;;;;23.50;17.77;;;;;;;;;;6250182;22;20014;-79
2023/03/16 12:07:08;;;;;;;27.17;19.40;;;;;;;;;;6302473;22;20490;-76
2023/03/16 12:09:43;;;;;;;29.02;18.63;;;;;;;;;;6302059;22;20348;-79
2023/03/16 12:12:15;;;;;;;30.65;17.98;;;;;;;;;;6302691;22;20007;-81
2023/03/16 12:14:54;;;;;;;29.17;17.23;;;;;;;;;;6301976;22;20034;-80
2023/03/16 12:17:22;;;;;;;24.73;16.60;;;;;;;;;;6302516;22;20043;-80
2023/03/16 12:19:49;;;;;;;28.90;20.30;;;;;;;;;;6224552;22;20015;-79
2023/03/16 12:22:20;;;;;;;35.45;22.55;;;;;;;;;;6247656;22;20029;-77
2023/03/16 12:24:47;;;;;;;26.00;17.38;;;;;;;;;;6300871;22;20035;-76
2023/03/16 12:27:17;;;;;;;31.90;17.95;;;;;;;;;;6272211;22;20011;-77
2023/03/16 12:29:48;;;;;;;29.40;18.85;;;;;;;;;;6301778;22;20394;-78
2023/03/16 12:32:14;;;;;;;36.45;20.67;;;;;;;;;;6302607;22;20016;-79
2023/03/16 12:34:55;;;;;;;30.58;19.60;;;;;;;;;;6301409;22;20045;-78
2023/03/16 12:37:20;;;;;;;26.25;16.55;;;;;;;;;;6273880;22;20019;-80
2023/03/16 12:39:50;;;;;;;24.58;17.33;;;;;;;;;;6300503;22;20007;-78
2023/03/16 12:42:16;;;;;;;25.23;16.92;;;;;;;;;;6273134;22;20046;-77
2023/03/16 12:44:56;;;;;;;25.40;18.63;;;;;;;;;;6300204;22;20559;-79
2023/03/16 12:47:32;;;;;;;20.40;14.73;;;;;;;;;;6301394;22;20021;-78
2023/03/16 12:50:05;;;;;;;19.35;15.25;;;;;;;;;;6272290;22;20404;-77
2023/03/16 12:52:38;;;;;;;17.60;13.35;;;;;;;;;;6305960;22;20094;-79
2023/03/16 12:55:26;;;;;;;20.30;14.77;;;;;;;;;;6309823;22;20034;-83
2023/03/16 12:57:59;;;;;;;18.45;14.05;;;;;;;;;;6310280;22;20083;-82
2023/03/16 13:00:36;;;;;;;20.83;13.77;;;;;;;;;;6306274;22;20015;-83
2023/03/16 13:03:02;;;;;;;17.15;13.63;;;;;;;;;;6316874;22;20015;-80
2023/03/16 13:05:31;;;;;;;18.52;14.27;;;;;;;;;;6314723;22;20059;-83
2023/03/16 13:08:10;;;;;;;18.58;13.45;;;;;;;;;;6270368;22;20018;-83
2023/03/16 13:10:36;;;;;;;18.85;14.02;;;;;;;;;;6313039;22;20105;-81
2023/03/16 13:13:13;;;;;;;14.95;12.15;;;;;;;;;;6276681;22;20422;-82
2023/03/16 13:15:46;;;;;;;16.42;12.48;;;;;;;;;;6282172;22;20011;-82
2023/03/16 13:18:15;;;;;;;17.63;11.80;;;;;;;;;;6283882;22;20031;-82
2023/03/16 13:20:50;;;;;;;16.58;13.25;;;;;;;;;;6309159;22;20020;-82
2023/03/16 13:23:23;;;;;;;16.02;13.18;;;;;;;;;;6312183;22;20011;-83
2023/03/16 13:26:10;;;;;;;17.38;14.70;;;;;;;;;;6286855;22;20029;-82
2023/03/16 13:28:36;;;;;;;17.75;12.90;;;;;;;;;;6282060;22;20011;-81
2023/03/16 13:31:03;;;;;;;21.10;13.40;;;;;;;;;;6303205;22;20015;-75
2023/03/16 13:33:34;;;;;;;18.08;14.63;;;;;;;;;;6308104;22;20448;-83
2023/03/16 13:36:01;;;;;;;22.33;14.93;;;;;;;;;;6289430;22;20094;-82
2023/03/16 13:38:27;;;;;;;19.75;14.90;;;;;;;;;;6294688;22;20343;-82
2023/03/16 13:40:55;;;;;;;24.42;17.33;;;;;;;;;;6285723;22;20035;-82
2023/03/16 13:43:22;;;;;;;19.60;14.70;;;;;;;;;;6311006;22;20007;-81
2023/03/16 13:45:48;;;;;;;19.88;15.07;;;;;;;;;;6310105;22;20103;-83
2023/03/16 13:48:15;;;;;;;19.20;14.05;;;;;;;;;;6281461;22;20018;-80
2023/03/16 13:50:42;;;;;;;22.50;15.95;;;;;;;;;;6316898;22;20035;-80
2023/03/16 13:53:15;;;;;;;21.17;15.50;;;;;;;;;;6326191;22;20007;-82
2023/03/16 13:55:42;;;;;;;17.70;14.10;;;;;;;;;;6324813;22;20015;-81
2023/03/16 13:58:22;;;;;;;17.40;14.27;;;;;;;;;;6285463;22;20007;-84
2023/03/16 14:00:48;;;;;;;20.08;15.38;;;;;;;;;;6315928;22;20027;-80
2023/03/16 14:03:16;;;;;;;21.80;14.57;;;;;;;;;;6319084;22;20065;-83
2023/03/16 14:05:42;;;;;;;20.77;13.52;;;;;;;;;;6316840;22;20067;-82
2023/03/16 14:08:18;;;;;;;18.73;13.70;;;;;;;;;;6284315;22;20405;-82
2023/03/16 14:10:44;;;;;;;21.05;13.77;;;;;;;;;;6282310;22;20014;-81
2023/03/16 14:13:31;;;;;;;21.45;15.95;;;;;;;;;;6312762;22;20578;-82
2023/03/16 14:16:00;;;;;;;20.38;14.80;;;;;;;;;;6314049;22;20038;-83
2023/03/16 14:18:36;;;;;;;26.38;17.67;;;;;;;;;;6304494;22;20436;-84
2023/03/16 14:21:08;;;;;;;23.88;16.52;;;;;;;;;;6313738;22;20015;-82
2023/03/16 14:23:37;;;;;;;23.20;16.08;;;;;;;;;;6308370;22;20015;-81
2023/03/16 14:26:04;;;;;;;23.48;17.25;;;;;;;;;;6310931;22;20112;-81
2023/03/16 14:28:30;;;;;;;23.92;16.73;;;;;;;;;;6319449;22;20046;-78
2023/03/16 14:31:09;;;;;;;25.88;18.02;;;;;;;;;;6278003;22;20006;-82
2023/03/16 14:33:36;;;;;;;25.67;17.30;;;;;;;;;;6340610;22;20018;-83
2023/03/16 14:36:06;;;;;;;36.75;21.10;;;;;;;;;;6312301;22;20010;-80
2023/03/16 14:38:36;;;;;;;26.83;17.17;;;;;;;;;;6336149;22;20021;-80
2023/03/16 14:41:22;;;;;;;27.88;16.92;;;;;;;;;;6316189;22;20026;-86
2023/03/16 14:43:50;;;;;;;29.80;18.35;;;;;;;;;;6328105;22;20030;-82
2023/03/16 14:46:26;;;;;;;35.90;22.15;;;;;;;;;;6344562;22;20011;-84